sensor_id;sensor_type;location;lat;lon;timestamp;pressure;altitude;pressure_sealevel;temperature;humidity
82245;BME280;71849;50.096;14.458;2024-01-30T00:00:49;101422.25;;;2.01;70.53
82245;BME280;71849;50.096;14.458;2024-01-30T00:03:18;101422.22;;;1.80;71.30
82245;BME280;71849;50.096;14.458;2024-01-30T00:05:47;101418.25;;;1.95;70.71
82245;BME280;71849;50.096;14.458;2024-01-30T00:08:16;101425.78;;;2.12;70.30
82245;BME280;71849;50.096;14.458;2024-01-30T00:10:45;101414.41;;;1.88;70.54
82245;BME280;71849;50.096;14.458;2024-01-30T00:13:13;101414.25;;;2.22;69.52
82245;BME280;71849;50.096;14.458;2024-01-30T00:15:44;101419.72;;;2.52;68.80
82245;BME280;71849;50.096;14.458;2024-01-30T00:18:16;101419.47;;;2.23;69.05
82245;BME280;71849;50.096;14.458;2024-01-30T00:20:45;101416.53;;;2.05;69.76
82245;BME280;71849;50.096;14.458;2024-01-30T00:23:13;101419.94;;;1.64;70.46
82245;BME280;71849;50.096;14.458;2024-01-30T00:25:42;101410.94;;;1.97;69.84
82245;BME280;71849;50.096;14.458;2024-01-30T00:28:10;101418.59;;;2.02;69.52
82245;BME280;71849;50.096;14.458;2024-01-30T00:30:39;101401.38;;;2.04;69.28
82245;BME280;71849;50.096;14.458;2024-01-30T00:33:08;101405.72;;;2.37;68.35
82245;BME280;71849;50.096;14.458;2024-01-30T00:35:39;101404.81;;;2.48;67.81
82245;BME280;71849;50.096;14.458;2024-01-30T00:38:07;101409.16;;;2.18;68.25
82245;BME280;71849;50.096;14.458;2024-01-30T00:40:36;101402.41;;;1.92;68.85
82245;BME280;71849;50.096;14.458;2024-01-30T00:43:05;101400.06;;;1.99;68.57
82245;BME280;71849;50.096;14.458;2024-01-30T00:45:33;101404.47;;;2.20;68.88
82245;BME280;71849;50.096;14.458;2024-01-30T00:48:02;101398.97;;;2.22;68.56
82245;BME280;71849;50.096;14.458;2024-01-30T00:50:31;101402.06;;;2.38;68.47
82245;BME280;71849;50.096;14.458;2024-01-30T00:53:02;101391.66;;;2.24;68.49
82245;BME280;71849;50.096;14.458;2024-01-30T00:55:31;101394.78;;;2.29;68.45
82245;BME280;71849;50.096;14.458;2024-01-30T00:58:00;101396.09;;;2.35;68.25
82245;BME280;71849;50.096;14.458;2024-01-30T01:00:28;101403.00;;;1.96;69.09
82245;BME280;71849;50.096;14.458;2024-01-30T01:02:57;101397.06;;;2.13;68.61
82245;BME280;71849;50.096;14.458;2024-01-30T01:05:26;101390.88;;;2.01;69.06
82245;BME280;71849;50.096;14.458;2024-01-30T01:07:54;101388.28;;;2.11;68.82
82245;BME280;71849;50.096;14.458;2024-01-30T01:10:26;101391.25;;;2.29;68.02
82245;BME280;71849;50.096;14.458;2024-01-30T01:12:55;101393.22;;;2.27;68.30
82245;BME280;71849;50.096;14.458;2024-01-30T01:15:23;101383.59;;;2.24;67.91
82245;BME280;71849;50.096;14.458;2024-01-30T01:17:52;101378.56;;;2.31;67.92
82245;BME280;71849;50.096;14.458;2024-01-30T01:20:21;101373.56;;;2.26;67.41
82245;BME280;71849;50.096;14.458;2024-01-30T01:22:49;101388.19;;;2.01;68.70
82245;BME280;71849;50.096;14.458;2024-01-30T01:25:18;101385.19;;;1.95;69.17
82245;BME280;71849;50.096;14.458;2024-01-30T01:27:49;101380.56;;;1.97;69.22
82245;BME280;71849;50.096;14.458;2024-01-30T01:30:19;101384.47;;;1.93;69.41
82245;BME280;71849;50.096;14.458;2024-01-30T01:32:49;101373.81;;;1.71;70.55
82245;BME280;71849;50.096;14.458;2024-01-30T01:35:21;101374.50;;;1.84;70.11
82245;BME280;71849;50.096;14.458;2024-01-30T01:37:50;101375.56;;;1.92;70.13
82245;BME280;71849;50.096;14.458;2024-01-30T01:40:23;101381.19;;;1.89;70.21
82245;BME280;71849;50.096;14.458;2024-01-30T01:42:55;101381.97;;;2.01;69.82
82245;BME280;71849;50.096;14.458;2024-01-30T01:45:24;101380.38;;;2.09;69.42
82245;BME280;71849;50.096;14.458;2024-01-30T01:47:53;101383.41;;;2.37;68.99
82245;BME280;71849;50.096;14.458;2024-01-30T01:50:21;101386.09;;;2.37;68.42
82245;BME280;71849;50.096;14.458;2024-01-30T01:52:52;101380.44;;;2.19;69.03
82245;BME280;71849;50.096;14.458;2024-01-30T01:55:21;101389.41;;;2.08;69.30
82245;BME280;71849;50.096;14.458;2024-01-30T01:57:55;101387.59;;;1.98;69.53
82245;BME280;71849;50.096;14.458;2024-01-30T02:00:24;101378.06;;;2.05;69.52
82245;BME280;71849;50.096;14.458;2024-01-30T02:02:54;101375.09;;;1.87;69.69
82245;BME280;71849;50.096;14.458;2024-01-30T02:05:24;101380.63;;;2.06;69.02
82245;BME280;71849;50.096;14.458;2024-01-30T02:07:53;101381.69;;;2.15;68.86
82245;BME280;71849;50.096;14.458;2024-01-30T02:10:22;101378.56;;;2.31;68.69
82245;BME280;71849;50.096;14.458;2024-01-30T02:12:51;101384.03;;;1.77;69.50
82245;BME280;71849;50.096;14.458;2024-01-30T02:15:22;101381.44;;;1.86;69.73
82245;BME280;71849;50.096;14.458;2024-01-30T02:17:51;101374.44;;;1.95;69.24
82245;BME280;71849;50.096;14.458;2024-01-30T02:20:19;101377.38;;;1.92;69.71
82245;BME280;71849;50.096;14.458;2024-01-30T02:22:51;101379.44;;;1.99;69.35
82245;BME280;71849;50.096;14.458;2024-01-30T02:25:30;101374.94;;;2.20;68.79
82245;BME280;71849;50.096;14.458;2024-01-30T02:27:58;101381.94;;;2.12;68.92
82245;BME280;71849;50.096;14.458;2024-01-30T02:30:27;101380.22;;;2.11;69.20
82245;BME280;71849;50.096;14.458;2024-01-30T02:32:55;101377.94;;;2.06;69.30
82245;BME280;71849;50.096;14.458;2024-01-30T02:35:24;101381.44;;;1.86;69.23
82245;BME280;71849;50.096;14.458;2024-01-30T02:37:55;101386.19;;;1.83;69.84
82245;BME280;71849;50.096;14.458;2024-01-30T02:40:24;101378.25;;;1.92;69.35
82245;BME280;71849;50.096;14.458;2024-01-30T02:42:52;101375.97;;;1.77;70.06
82245;BME280;71849;50.096;14.458;2024-01-30T02:45:21;101368.38;;;1.61;70.57
82245;BME280;71849;50.096;14.458;2024-01-30T02:47:49;101373.47;;;1.96;69.45
82245;BME280;71849;50.096;14.458;2024-01-30T02:50:18;101378.13;;;1.94;69.08
82245;BME280;71849;50.096;14.458;2024-01-30T02:52:46;101372.31;;;1.46;70.17
82245;BME280;71849;50.096;14.458;2024-01-30T02:55:17;101384.59;;;1.59;70.93
82245;BME280;71849;50.096;14.458;2024-01-30T02:57:46;101372.38;;;1.67;70.37
82245;BME280;71849;50.096;14.458;2024-01-30T03:00:15;101373.19;;;1.78;69.77
82245;BME280;71849;50.096;14.458;2024-01-30T03:02:45;101372.53;;;1.86;69.43
82245;BME280;71849;50.096;14.458;2024-01-30T03:05:13;101370.53;;;1.99;69.21
82245;BME280;71849;50.096;14.458;2024-01-30T03:07:42;101362.63;;;1.97;68.99
82245;BME280;71849;50.096;14.458;2024-01-30T03:10:10;101366.75;;;1.70;69.10
82245;BME280;71849;50.096;14.458;2024-01-30T03:12:42;101368.28;;;1.83;68.95
82245;BME280;71849;50.096;14.458;2024-01-30T03:15:10;101368.50;;;1.91;68.55
82245;BME280;71849;50.096;14.458;2024-01-30T03:17:39;101365.94;;;1.90;68.62
82245;BME280;71849;50.096;14.458;2024-01-30T03:20:11;101359.88;;;1.77;69.08
82245;BME280;71849;50.096;14.458;2024-01-30T03:22:40;101353.28;;;1.49;69.61
82245;BME280;71849;50.096;14.458;2024-01-30T03:25:08;101347.97;;;1.58;69.47
82245;BME280;71849;50.096;14.458;2024-01-30T03:27:37;101353.69;;;1.65;69.54
82245;BME280;71849;50.096;14.458;2024-01-30T03:30:09;101347.03;;;1.91;68.76
82245;BME280;71849;50.096;14.458;2024-01-30T03:32:37;101358.66;;;1.38;69.25
82245;BME280;71849;50.096;14.458;2024-01-30T03:35:07;101352.72;;;1.23;70.22
82245;BME280;71849;50.096;14.458;2024-01-30T03:37:35;101359.78;;;1.13;70.84
82245;BME280;71849;50.096;14.458;2024-01-30T03:40:07;101349.59;;;0.96;71.70
82245;BME280;71849;50.096;14.458;2024-01-30T03:42:36;101349.34;;;0.88;71.62
82245;BME280;71849;50.096;14.458;2024-01-30T03:45:08;101358.97;;;0.90;72.15
82245;BME280;71849;50.096;14.458;2024-01-30T03:47:37;101359.41;;;1.40;70.87
82245;BME280;71849;50.096;14.458;2024-01-30T03:50:08;101341.03;;;1.56;70.02
82245;BME280;71849;50.096;14.458;2024-01-30T03:52:36;101341.81;;;1.47;70.32
82245;BME280;71849;50.096;14.458;2024-01-30T03:55:05;101350.34;;;1.41;70.26
82245;BME280;71849;50.096;14.458;2024-01-30T03:57:34;101347.13;;;1.15;70.58
82245;BME280;71849;50.096;14.458;2024-01-30T04:00:03;101340.91;;;1.03;71.04
82245;BME280;71849;50.096;14.458;2024-01-30T04:02:36;101332.22;;;1.33;70.36
82245;BME280;71849;50.096;14.458;2024-01-30T04:05:05;101326.34;;;1.71;69.50
82245;BME280;71849;50.096;14.458;2024-01-30T04:07:34;101330.44;;;1.86;68.85
82245;BME280;71849;50.096;14.458;2024-01-30T04:10:03;101326.88;;;1.86;69.40
82245;BME280;71849;50.096;14.458;2024-01-30T04:12:32;101332.81;;;2.00;68.63
82245;BME280;71849;50.096;14.458;2024-01-30T04:15:01;101324.44;;;1.94;68.45
82245;BME280;71849;50.096;14.458;2024-01-30T04:17:30;101327.50;;;1.89;69.05
82245;BME280;71849;50.096;14.458;2024-01-30T04:20:01;101329.28;;;2.00;68.47
82245;BME280;71849;50.096;14.458;2024-01-30T04:22:30;101336.41;;;1.90;68.67
82245;BME280;71849;50.096;14.458;2024-01-30T04:25:04;101330.13;;;2.00;68.14
82245;BME280;71849;50.096;14.458;2024-01-30T04:27:33;101335.69;;;1.56;69.01
82245;BME280;71849;50.096;14.458;2024-01-30T04:30:01;101343.72;;;1.13;70.59
82245;BME280;71849;50.096;14.458;2024-01-30T04:32:32;101326.09;;;1.42;70.00
82245;BME280;71849;50.096;14.458;2024-01-30T04:35:04;101328.66;;;1.44;70.17
82245;BME280;71849;50.096;14.458;2024-01-30T04:37:32;101339.47;;;1.53;70.07
82245;BME280;71849;50.096;14.458;2024-01-30T04:40:01;101331.59;;;1.73;69.23
82245;BME280;71849;50.096;14.458;2024-01-30T04:42:30;101342.97;;;1.65;68.96
82245;BME280;71849;50.096;14.458;2024-01-30T04:44:59;101336.47;;;1.67;69.37
82245;BME280;71849;50.096;14.458;2024-01-30T04:47:27;101338.63;;;1.85;68.91
82245;BME280;71849;50.096;14.458;2024-01-30T04:49:56;101336.06;;;1.83;68.50
82245;BME280;71849;50.096;14.458;2024-01-30T04:52:27;101335.53;;;1.89;68.78
82245;BME280;71849;50.096;14.458;2024-01-30T04:54:56;101343.13;;;1.52;69.59
82245;BME280;71849;50.096;14.458;2024-01-30T04:57:25;101337.75;;;1.52;69.60
82245;BME280;71849;50.096;14.458;2024-01-30T04:59:53;101340.34;;;1.54;69.40
82245;BME280;71849;50.096;14.458;2024-01-30T05:02:22;101346.66;;;1.53;69.33
82245;BME280;71849;50.096;14.458;2024-01-30T05:04:53;101357.00;;;1.15;70.53
82245;BME280;71849;50.096;14.458;2024-01-30T05:07:26;101350.47;;;1.50;70.16
82245;BME280;71849;50.096;14.458;2024-01-30T05:09:55;101353.28;;;1.38;70.06
82245;BME280;71849;50.096;14.458;2024-01-30T05:12:23;101352.84;;;1.10;70.37
82245;BME280;71849;50.096;14.458;2024-01-30T05:14:52;101359.53;;;1.16;70.99
82245;BME280;71849;50.096;14.458;2024-01-30T05:17:21;101363.34;;;0.91;71.61
82245;BME280;71849;50.096;14.458;2024-01-30T05:19:49;101368.44;;;1.17;71.13
82245;BME280;71849;50.096;14.458;2024-01-30T05:22:18;101366.34;;;1.42;70.11
82245;BME280;71849;50.096;14.458;2024-01-30T05:24:51;101363.66;;;1.42;70.11
82245;BME280;71849;50.096;14.458;2024-01-30T05:27:20;101364.09;;;0.93;71.53
82245;BME280;71849;50.096;14.458;2024-01-30T05:29:48;101371.53;;;0.90;71.77
82245;BME280;71849;50.096;14.458;2024-01-30T05:32:17;101363.25;;;0.82;71.86
82245;BME280;71849;50.096;14.458;2024-01-30T05:34:46;101371.75;;;1.20;71.31
82245;BME280;71849;50.096;14.458;2024-01-30T05:37:16;101360.50;;;1.26;70.52
82245;BME280;71849;50.096;14.458;2024-01-30T05:39:44;101356.53;;;1.52;69.92
82245;BME280;71849;50.096;14.458;2024-01-30T05:42:15;101349.13;;;1.45;69.83
82245;BME280;71849;50.096;14.458;2024-01-30T05:44:44;101347.91;;;1.49;69.57
82245;BME280;71849;50.096;14.458;2024-01-30T05:47:13;101355.72;;;1.41;69.67
82245;BME280;71849;50.096;14.458;2024-01-30T05:49:42;101348.88;;;1.48;69.08
82245;BME280;71849;50.096;14.458;2024-01-30T05:52:10;101354.53;;;1.23;69.70
82245;BME280;71849;50.096;14.458;2024-01-30T05:54:40;101357.41;;;0.88;71.40
82245;BME280;71849;50.096;14.458;2024-01-30T05:57:09;101358.94;;;1.24;70.79
82245;BME280;71849;50.096;14.458;2024-01-30T05:59:40;101352.44;;;1.48;69.75
82245;BME280;71849;50.096;14.458;2024-01-30T06:02:10;101362.00;;;1.62;69.29
82245;BME280;71849;50.096;14.458;2024-01-30T06:04:39;101351.38;;;1.72;69.05
82245;BME280;71849;50.096;14.458;2024-01-30T06:07:12;101354.59;;;1.54;69.25
82245;BME280;71849;50.096;14.458;2024-01-30T06:09:43;101349.59;;;1.61;68.75
82245;BME280;71849;50.096;14.458;2024-01-30T06:12:12;101346.66;;;1.64;68.87
82245;BME280;71849;50.096;14.458;2024-01-30T06:14:43;101345.53;;;1.67;68.66
82245;BME280;71849;50.096;14.458;2024-01-30T06:17:12;101350.00;;;1.34;69.68
82245;BME280;71849;50.096;14.458;2024-01-30T06:19:43;101342.91;;;1.44;69.32
82245;BME280;71849;50.096;14.458;2024-01-30T06:22:13;101344.78;;;1.64;68.74
82245;BME280;71849;50.096;14.458;2024-01-30T06:24:41;101340.78;;;1.59;68.87
82245;BME280;71849;50.096;14.458;2024-01-30T06:27:10;101346.81;;;1.51;68.52
82245;BME280;71849;50.096;14.458;2024-01-30T06:29:40;101362.84;;;1.31;69.23
82245;BME280;71849;50.096;14.458;2024-01-30T06:32:12;101361.69;;;1.44;69.09
82245;BME280;71849;50.096;14.458;2024-01-30T06:34:41;101359.81;;;1.56;68.70
82245;BME280;71849;50.096;14.458;2024-01-30T06:37:13;101367.19;;;1.32;69.40
82245;BME280;71849;50.096;14.458;2024-01-30T06:39:44;101369.78;;;1.22;69.87
82245;BME280;71849;50.096;14.458;2024-01-30T06:42:12;101366.91;;;1.57;68.40
82245;BME280;71849;50.096;14.458;2024-01-30T06:44:41;101366.19;;;1.44;69.04
82245;BME280;71849;50.096;14.458;2024-01-30T06:47:13;101374.91;;;1.14;69.77
82245;BME280;71849;50.096;14.458;2024-01-30T06:49:47;101370.19;;;0.95;70.47
82245;BME280;71849;50.096;14.458;2024-01-30T06:52:15;101371.84;;;1.19;70.02
82245;BME280;71849;50.096;14.458;2024-01-30T06:54:44;101373.94;;;0.71;70.84
82245;BME280;71849;50.096;14.458;2024-01-30T06:57:13;101377.13;;;0.76;71.55
82245;BME280;71849;50.096;14.458;2024-01-30T06:59:41;101375.78;;;0.81;71.38
82245;BME280;71849;50.096;14.458;2024-01-30T07:02:12;101380.78;;;0.75;70.82
82245;BME280;71849;50.096;14.458;2024-01-30T07:04:45;101382.38;;;0.99;70.54
82245;BME280;71849;50.096;14.458;2024-01-30T07:07:14;101384.16;;;1.10;69.99
82245;BME280;71849;50.096;14.458;2024-01-30T07:09:45;101388.69;;;1.21;69.62
82245;BME280;71849;50.096;14.458;2024-01-30T07:12:15;101378.25;;;1.49;68.46
82245;BME280;71849;50.096;14.458;2024-01-30T07:14:43;101391.59;;;1.40;68.74
82245;BME280;71849;50.096;14.458;2024-01-30T07:17:15;101376.06;;;1.43;68.43
82245;BME280;71849;50.096;14.458;2024-01-30T07:19:45;101385.94;;;1.54;67.76
82245;BME280;71849;50.096;14.458;2024-01-30T07:22:13;101385.88;;;1.76;67.68
82245;BME280;71849;50.096;14.458;2024-01-30T07:24:42;101389.03;;;1.81;67.35
82245;BME280;71849;50.096;14.458;2024-01-30T07:27:13;101392.28;;;1.53;67.99
82245;BME280;71849;50.096;14.458;2024-01-30T07:29:43;101386.19;;;1.51;67.88
82245;BME280;71849;50.096;14.458;2024-01-30T07:32:14;101389.91;;;1.17;68.71
82245;BME280;71849;50.096;14.458;2024-01-30T07:34:45;101390.63;;;1.30;68.97
82245;BME280;71849;50.096;14.458;2024-01-30T07:37:15;101401.81;;;1.46;68.12
82245;BME280;71849;50.096;14.458;2024-01-30T07:39:44;101403.41;;;1.37;68.56
82245;BME280;71849;50.096;14.458;2024-01-30T07:42:14;101402.66;;;1.46;68.17
82245;BME280;71849;50.096;14.458;2024-01-30T07:44:43;101410.56;;;1.70;67.74
82245;BME280;71849;50.096;14.458;2024-01-30T07:47:14;101413.09;;;1.72;67.16
82245;BME280;71849;50.096;14.458;2024-01-30T07:49:43;101406.56;;;1.53;67.41
82245;BME280;71849;50.096;14.458;2024-01-30T07:52:14;101410.50;;;1.27;68.23
82245;BME280;71849;50.096;14.458;2024-01-30T07:54:42;101420.97;;;1.19;69.08
82245;BME280;71849;50.096;14.458;2024-01-30T07:57:11;101417.91;;;1.35;68.66
82245;BME280;71849;50.096;14.458;2024-01-30T07:59:42;101416.56;;;1.51;67.88
82245;BME280;71849;50.096;14.458;2024-01-30T08:02:14;101412.22;;;1.71;67.49
82245;BME280;71849;50.096;14.458;2024-01-30T08:04:43;101404.53;;;1.78;67.05
82245;BME280;71849;50.096;14.458;2024-01-30T08:07:14;101402.00;;;1.76;66.78
82245;BME280;71849;50.096;14.458;2024-01-30T08:09:43;101405.44;;;1.56;67.57
82245;BME280;71849;50.096;14.458;2024-01-30T08:12:11;101407.31;;;1.87;67.16
82245;BME280;71849;50.096;14.458;2024-01-30T08:14:42;101405.75;;;1.85;67.04
82245;BME280;71849;50.096;14.458;2024-01-30T08:17:14;101404.69;;;1.65;67.41
82245;BME280;71849;50.096;14.458;2024-01-30T08:19:45;101404.88;;;1.19;68.34
82245;BME280;71849;50.096;14.458;2024-01-30T08:22:13;101408.06;;;1.24;69.36
82245;BME280;71849;50.096;14.458;2024-01-30T08:24:42;101400.03;;;1.24;69.49
82245;BME280;71849;50.096;14.458;2024-01-30T08:27:11;101395.84;;;1.31;69.35
82245;BME280;71849;50.096;14.458;2024-01-30T08:29:39;101396.63;;;1.65;68.17
82245;BME280;71849;50.096;14.458;2024-01-30T08:32:10;101389.41;;;1.77;67.71
82245;BME280;71849;50.096;14.458;2024-01-30T08:34:41;101388.94;;;1.72;67.74
82245;BME280;71849;50.096;14.458;2024-01-30T08:37:10;101391.91;;;1.57;68.17
82245;BME280;71849;50.096;14.458;2024-01-30T08:39:41;101378.59;;;1.67;68.15
82245;BME280;71849;50.096;14.458;2024-01-30T08:42:10;101395.56;;;1.99;67.34
82245;BME280;71849;50.096;14.458;2024-01-30T08:44:39;101390.53;;;2.27;66.32
82245;BME280;71849;50.096;14.458;2024-01-30T08:47:12;101389.34;;;2.19;66.30
82245;BME280;71849;50.096;14.458;2024-01-30T08:49:44;101394.78;;;2.29;66.34
82245;BME280;71849;50.096;14.458;2024-01-30T08:52:13;101394.72;;;2.19;65.86
82245;BME280;71849;50.096;14.458;2024-01-30T08:54:41;101384.81;;;1.99;66.94
82245;BME280;71849;50.096;14.458;2024-01-30T08:57:10;101382.28;;;2.39;66.36
82245;BME280;71849;50.096;14.458;2024-01-30T08:59:39;101398.06;;;2.53;65.84
82245;BME280;71849;50.096;14.458;2024-01-30T09:02:10;101387.69;;;2.69;64.90
82245;BME280;71849;50.096;14.458;2024-01-30T09:04:38;101381.56;;;2.88;64.57
82245;BME280;71849;50.096;14.458;2024-01-30T09:07:09;101387.22;;;2.85;64.50
82245;BME280;71849;50.096;14.458;2024-01-30T09:09:38;101383.53;;;2.86;64.26
82245;BME280;71849;50.096;14.458;2024-01-30T09:12:12;101383.72;;;2.64;64.61
82245;BME280;71849;50.096;14.458;2024-01-30T09:14:41;101384.81;;;2.20;66.17
82245;BME280;71849;50.096;14.458;2024-01-30T09:17:10;101376.75;;;1.99;67.61
82245;BME280;71849;50.096;14.458;2024-01-30T09:19:40;101380.94;;;2.13;67.25
82245;BME280;71849;50.096;14.458;2024-01-30T09:22:11;101382.56;;;2.04;67.36
82245;BME280;71849;50.096;14.458;2024-01-30T09:24:40;101375.06;;;2.19;67.40
82245;BME280;71849;50.096;14.458;2024-01-30T09:27:11;101378.59;;;2.40;66.52
82245;BME280;71849;50.096;14.458;2024-01-30T09:29:40;101377.41;;;2.54;66.37
82245;BME280;71849;50.096;14.458;2024-01-30T09:32:08;101382.53;;;2.36;66.67
82245;BME280;71849;50.096;14.458;2024-01-30T09:34:37;101378.13;;;2.56;66.33
82245;BME280;71849;50.096;14.458;2024-01-30T09:37:05;101384.59;;;2.95;65.31
82245;BME280;71849;50.096;14.458;2024-01-30T09:39:37;101391.00;;;3.03;64.97
82245;BME280;71849;50.096;14.458;2024-01-30T09:42:10;101387.88;;;2.78;65.55
82245;BME280;71849;50.096;14.458;2024-01-30T09:44:43;101394.44;;;2.85;64.96
82245;BME280;71849;50.096;14.458;2024-01-30T09:47:12;101388.69;;;2.99;64.73
82245;BME280;71849;50.096;14.458;2024-01-30T09:49:42;101393.53;;;3.05;64.94
82245;BME280;71849;50.096;14.458;2024-01-30T09:52:12;101385.28;;;2.97;64.81
82245;BME280;71849;50.096;14.458;2024-01-30T09:54:43;101381.47;;;2.69;65.74
82245;BME280;71849;50.096;14.458;2024-01-30T09:57:13;101376.50;;;2.95;65.45
82245;BME280;71849;50.096;14.458;2024-01-30T09:59:42;101371.41;;;2.61;66.53
82245;BME280;71849;50.096;14.458;2024-01-30T10:02:11;101370.53;;;2.61;67.82
82245;BME280;71849;50.096;14.458;2024-01-30T10:04:39;101374.06;;;3.22;65.89
82245;BME280;71849;50.096;14.458;2024-01-30T10:07:10;101365.34;;;3.49;64.61
82245;BME280;71849;50.096;14.458;2024-01-30T10:09:39;101364.78;;;3.45;64.59
82245;BME280;71849;50.096;14.458;2024-01-30T10:12:11;101369.72;;;3.40;65.47
82245;BME280;71849;50.096;14.458;2024-01-30T10:14:42;101366.53;;;3.16;66.38
82245;BME280;71849;50.096;14.458;2024-01-30T10:17:12;101356.00;;;3.62;65.43
82245;BME280;71849;50.096;14.458;2024-01-30T10:19:41;101358.47;;;4.04;64.16
82245;BME280;71849;50.096;14.458;2024-01-30T10:22:10;101358.72;;;4.20;63.66
82245;BME280;71849;50.096;14.458;2024-01-30T10:24:40;101346.25;;;4.19;63.83
82245;BME280;71849;50.096;14.458;2024-01-30T10:27:13;101354.75;;;4.05;64.23
82245;BME280;71849;50.096;14.458;2024-01-30T10:29:43;101344.69;;;4.16;64.52
82245;BME280;71849;50.096;14.458;2024-01-30T10:32:11;101349.22;;;4.25;63.66
82245;BME280;71849;50.096;14.458;2024-01-30T10:34:40;101347.22;;;3.60;65.12
82245;BME280;71849;50.096;14.458;2024-01-30T10:37:09;101343.56;;;3.90;64.62
82245;BME280;71849;50.096;14.458;2024-01-30T10:39:42;101341.84;;;4.18;63.21
82245;BME280;71849;50.096;14.458;2024-01-30T10:42:14;101340.47;;;4.04;63.97
82245;BME280;71849;50.096;14.458;2024-01-30T10:44:48;101340.28;;;4.06;63.86
82245;BME280;71849;50.096;14.458;2024-01-30T10:47:26;101339.03;;;4.19;63.33
82245;BME280;71849;50.096;14.458;2024-01-30T10:49:55;101346.53;;;4.72;61.68
82245;BME280;71849;50.096;14.458;2024-01-30T10:52:24;101329.47;;;4.81;61.24
82245;BME280;71849;50.096;14.458;2024-01-30T10:54:54;101336.59;;;4.72;61.61
82245;BME280;71849;50.096;14.458;2024-01-30T10:57:28;101333.19;;;4.80;61.46
82245;BME280;71849;50.096;14.458;2024-01-30T10:59:58;101338.09;;;4.94;60.94
82245;BME280;71849;50.096;14.458;2024-01-30T11:02:31;101327.84;;;4.97;60.80
82245;BME280;71849;50.096;14.458;2024-01-30T11:05:00;101325.63;;;4.83;61.09
82245;BME280;71849;50.096;14.458;2024-01-30T11:07:29;101326.47;;;4.84;60.83
82245;BME280;71849;50.096;14.458;2024-01-30T11:10:02;101322.34;;;4.89;60.71
82245;BME280;71849;50.096;14.458;2024-01-30T11:12:38;101320.50;;;4.90;60.82
82245;BME280;71849;50.096;14.458;2024-01-30T11:15:10;101318.41;;;5.11;60.33
82245;BME280;71849;50.096;14.458;2024-01-30T11:17:43;101309.34;;;5.30;59.82
82245;BME280;71849;50.096;14.458;2024-01-30T11:20:15;101303.94;;;5.30;59.74
82245;BME280;71849;50.096;14.458;2024-01-30T11:22:45;101306.06;;;5.09;60.04
82245;BME280;71849;50.096;14.458;2024-01-30T11:25:15;101312.91;;;5.03;60.56
82245;BME280;71849;50.096;14.458;2024-01-30T11:27:46;101302.94;;;5.13;60.23
82245;BME280;71849;50.096;14.458;2024-01-30T11:30:24;101300.81;;;5.07;60.30
82245;BME280;71849;50.096;14.458;2024-01-30T11:33:03;101308.44;;;4.84;61.06
82245;BME280;71849;50.096;14.458;2024-01-30T11:35:34;101294.59;;;5.24;59.73
82245;BME280;71849;50.096;14.458;2024-01-30T11:38:05;101304.50;;;5.06;60.24
82245;BME280;71849;50.096;14.458;2024-01-30T11:40:37;101295.78;;;5.39;59.14
82245;BME280;71849;50.096;14.458;2024-01-30T11:43:09;101291.19;;;5.49;58.61
82245;BME280;71849;50.096;14.458;2024-01-30T11:45:38;101293.00;;;5.31;59.33
82245;BME280;71849;50.096;14.458;2024-01-30T11:48:11;101289.06;;;5.26;59.57
82245;BME280;71849;50.096;14.458;2024-01-30T11:50:40;101277.66;;;5.32;59.58
82245;BME280;71849;50.096;14.458;2024-01-30T11:53:10;101291.78;;;5.43;59.50
82245;BME280;71849;50.096;14.458;2024-01-30T11:55:39;101285.06;;;5.47;58.88
82245;BME280;71849;50.096;14.458;2024-01-30T11:58:11;101281.38;;;5.48;58.83
82245;BME280;71849;50.096;14.458;2024-01-30T12:00:39;101285.47;;;5.35;58.99
82245;BME280;71849;50.096;14.458;2024-01-30T12:03:11;101278.03;;;4.92;60.10
82245;BME280;71849;50.096;14.458;2024-01-30T12:05:39;101270.84;;;5.10;59.77
82245;BME280;71849;50.096;14.458;2024-01-30T12:08:15;101270.25;;;5.16;59.97
82245;BME280;71849;50.096;14.458;2024-01-30T12:10:45;101271.78;;;5.19;59.92
82245;BME280;71849;50.096;14.458;2024-01-30T12:13:17;101258.16;;;5.38;59.70
82245;BME280;71849;50.096;14.458;2024-01-30T12:15:46;101267.97;;;5.12;59.95
82245;BME280;71849;50.096;14.458;2024-01-30T12:18:18;101267.78;;;4.95;60.98
82245;BME280;71849;50.096;14.458;2024-01-30T12:21:05;101256.38;;;5.02;60.46
82245;BME280;71849;50.096;14.458;2024-01-30T12:23:35;101253.78;;;5.10;60.17
82245;BME280;71849;50.096;14.458;2024-01-30T12:26:04;101249.44;;;4.99;60.51
82245;BME280;71849;50.096;14.458;2024-01-30T12:28:37;101250.00;;;5.03;60.57
82245;BME280;71849;50.096;14.458;2024-01-30T12:31:05;101255.19;;;4.59;61.73
82245;BME280;71849;50.096;14.458;2024-01-30T12:33:36;101251.78;;;4.57;61.91
82245;BME280;71849;50.096;14.458;2024-01-30T12:36:07;101244.56;;;4.85;61.61
82245;BME280;71849;50.096;14.458;2024-01-30T12:38:36;101236.38;;;5.22;60.01
82245;BME280;71849;50.096;14.458;2024-01-30T12:41:07;101228.72;;;5.17;60.29
82245;BME280;71849;50.096;14.458;2024-01-30T12:43:38;101233.00;;;5.20;60.21
82245;BME280;71849;50.096;14.458;2024-01-30T12:46:08;101244.41;;;5.31;59.75
82245;BME280;71849;50.096;14.458;2024-01-30T12:48:37;101236.75;;;5.27;59.83
82245;BME280;71849;50.096;14.458;2024-01-30T12:51:06;101237.63;;;5.45;59.13
82245;BME280;71849;50.096;14.458;2024-01-30T12:53:34;101223.97;;;5.46;58.86
82245;BME280;71849;50.096;14.458;2024-01-30T12:56:08;101240.00;;;5.48;58.83
82245;BME280;71849;50.096;14.458;2024-01-30T12:58:42;101241.97;;;5.38;59.29
82245;BME280;71849;50.096;14.458;2024-01-30T13:01:12;101244.19;;;4.80;61.08
82245;BME280;71849;50.096;14.458;2024-01-30T13:03:40;101239.16;;;4.58;61.96